Time;durP1;ratioP1;P1;durP2;ratioP2;P2;SDS_P1;SDS_P2;PMS_P1;PMS_P2;Temp;Humidity;BMP_temperature;BMP_pressure;BME280_temperature;BME280_humidity;BME280_pressure;Samples;Min_cycle;Max_cycle;Signal;HPM_P1;HPM_P2
2022/06/22 00:00:37;;;;;;;10.27;7.68;;;12.90;99.90;;;;;;5054388;28;20044;-88
2022/06/22 00:03:06;;;;;;;10.40;5.45;;;12.90;99.90;;;;;;5054550;28;20056;-87
2022/06/22 00:05:38;;;;;;;5.63;5.03;;;12.50;99.90;;;;;;5028173;28;20068;-87
2022/06/22 00:08:07;;;;;;;6.35;4.47;;;12.60;99.90;;;;;;5049631;28;20064;-87
2022/06/22 00:10:49;;;;;;;7.90;4.65;;;12.60;99.90;;;;;;5053217;28;20045;-87
2022/06/22 00:13:21;;;;;;;6.53;5.20;;;12.40;99.90;;;;;;5045287;28;20052;-87
2022/06/22 00:15:56;;;;;;;5.20;4.57;;;12.40;99.90;;;;;;5037123;28;20041;-88
2022/06/22 00:18:34;;;;;;;4.60;4.18;;;12.20;99.90;;;;;;5053453;28;20107;-87
2022/06/22 00:21:05;;;;;;;5.78;5.00;;;11.90;99.90;;;;;;5040452;28;20040;-88
2022/06/22 00:23:31;;;;;;;5.80;4.78;;;;;;;;;;5030604;28;20123;-87
2022/06/22 00:26:14;;;;;;;4.03;3.72;;;11.90;99.90;;;;;;5046664;28;20072;-86
2022/06/22 00:28:54;;;;;;;6.63;4.35;;;11.90;99.90;;;;;;5028227;28;20476;-88
2022/06/22 00:31:43;;;;;;;22.00;5.32;;;11.90;99.90;;;;;;5051449;28;20047;-89
2022/06/22 00:34:09;;;;;;;8.13;3.40;;;;;;;;;;5043540;28;20435;-88
2022/06/22 00:36:43;;;;;;;5.55;3.30;;;11.90;99.90;;;;;;5050861;28;20045;-88
2022/06/22 00:39:28;;;;;;;3.20;2.83;;;11.70;99.90;;;;;;5042977;28;20123;-87
2022/06/22 00:42:15;;;;;;;3.22;2.90;;;11.80;99.90;;;;;;5053493;28;20041;-86
2022/06/22 00:44:58;;;;;;;5.60;5.05;;;11.60;99.90;;;;;;5053579;28;20147;-88
2022/06/22 00:47:24;;;;;;;4.65;3.80;;;;;;;;;;5023568;28;20033;-86
2022/06/22 00:49:50;;;;;;;3.53;3.22;;;;;;;;;;5036432;28;20045;-87
2022/06/22 00:52:34;;;;;;;11.88;3.95;;;11.40;99.90;;;;;;5037428;28;20048;-88
2022/06/22 00:55:00;;;;;;;45.05;4.90;;;;;;;;;;5053045;28;20488;-88
2022/06/22 00:57:33;;;;;;;13.15;3.33;;;11.40;99.90;;;;;;5035828;28;20110;-86
2022/06/22 01:00:05;;;;;;;3.70;2.90;;;11.50;99.90;;;;;;5053012;28;20091;-88
2022/06/22 01:02:51;;;;;;;6.68;4.53;;;11.40;99.90;;;;;;5035512;28;20029;-88
2022/06/22 01:05:31;;;;;;;7.75;5.78;;;11.30;99.90;;;;;;5036639;28;20041;-87
2022/06/22 01:08:09;;;;;;;7.80;5.55;;;11.40;99.90;;;;;;5035554;28;20399;-86
2022/06/22 01:10:56;;;;;;;8.15;7.25;;;11.20;99.90;;;;;;5052328;28;20052;-87
2022/06/22 01:13:31;;;;;;;8.35;6.43;;;11.40;99.90;;;;;;5055246;28;20151;-87
2022/06/22 01:16:25;;;;;;;13.80;7.57;;;11.40;99.90;;;;;;5034621;28;20045;-88
2022/06/22 01:19:16;;;;;;;9.20;7.18;;;11.50;99.90;;;;;;5038440;28;20049;-87
2022/06/22 01:21:46;;;;;;;10.80;7.72;;;11.30;99.90;;;;;;5031038;28;20048;-87
2022/06/22 01:24:18;;;;;;;11.13;8.65;;;;;;;;;;5036704;28;20037;-87
2022/06/22 01:27:21;;;;;;;6.30;5.03;;;11.20;99.90;;;;;;5052021;28;20515;-87
2022/06/22 01:29:50;;;;;;;4.03;3.08;;;11.10;99.90;;;;;;5035456;28;20436;-87
2022/06/22 01:32:24;;;;;;;7.10;6.40;;;11.30;99.90;;;;;;5052597;28;20400;-87
2022/06/22 01:34:55;;;;;;;12.35;5.20;;;11.00;99.90;;;;;;5035678;28;20037;-87
2022/06/22 01:37:27;;;;;;;3.42;3.05;;;11.20;99.90;;;;;;5052340;28;20044;-87
2022/06/22 01:40:16;;;;;;;5.28;4.28;;;11.00;99.90;;;;;;5052254;28;20507;-87
2022/06/22 01:42:42;;;;;;;5.05;4.22;;;;;;;;;;5035552;28;20033;-87
2022/06/22 01:45:16;;;;;;;6.35;4.63;;;10.70;99.90;;;;;;5050555;28;20035;-87
2022/06/22 01:47:54;;;;;;;6.95;5.43;;;10.70;99.90;;;;;;5044461;28;20481;-87
2022/06/22 01:50:23;;;;;;;7.55;5.65;;;11.00;99.90;;;;;;5052584;28;20048;-87
2022/06/22 01:53:10;;;;;;;7.93;6.68;;;11.00;99.90;;;;;;5051411;28;20045;-87
2022/06/22 01:55:54;;;;;;;8.85;7.03;;;10.90;99.90;;;;;;5026744;28;20174;-86
2022/06/22 01:58:20;;;;;;;9.85;8.00;;;;;;;;;;5051689;28;20385;-87
2022/06/22 02:01:00;;;;;;;8.63;7.63;;;10.90;99.90;;;;;;5043947;28;20083;-87
2022/06/22 02:03:44;;;;;;;13.00;9.20;;;10.70;99.90;;;;;;5047553;28;20064;-88
2022/06/22 02:09:08;;;;;;;12.05;8.63;;;10.70;99.90;;;;;;5052665;28;20504;-87
2022/06/22 02:11:41;;;;;;;8.65;7.53;;;10.40;99.90;;;;;;5052263;28;20053;-88
2022/06/22 02:14:17;;;;;;;18.63;10.55;;;10.60;99.90;;;;;;5050295;28;20048;-88
2022/06/22 02:16:52;;;;;;;17.90;7.55;;;10.50;99.90;;;;;;5034916;28;20037;-87
2022/06/22 02:19:18;;;;;;;;;;;10.50;99.90;;;;;;5052390;28;20403;-88
2022/06/22 02:21:57;;;;;;;48.85;8.18;;;10.20;99.90;;;;;;5034551;28;19985;-88
2022/06/22 02:24:26;;;;;;;13.13;5.57;;;;;;;;;;5046489;28;20034;-87
2022/06/22 02:27:00;;;;;;;11.23;5.70;;;10.30;99.90;;;;;;5051046;28;20449;-87
2022/06/22 02:29:29;;;;;;;12.35;6.68;;;10.30;99.90;;;;;;5051873;28;20033;-87
2022/06/22 02:31:58;;;;;;;13.70;6.63;;;10.10;99.90;;;;;;5051467;28;20150;-87
2022/06/22 02:34:25;;;;;;;20.65;7.57;;;;;;;;;;5051609;28;20065;-87
2022/06/22 02:36:53;;;;;;;16.42;7.30;;;10.10;99.90;;;;;;5050977;28;20044;-89
2022/06/22 02:39:24;;;;;;;8.63;7.70;;;9.90;99.90;;;;;;5051299;28;20067;-87
2022/06/22 02:44:40;;;;;;;6.50;5.78;;;10.00;99.90;;;;;;5051647;28;20045;-87
2022/06/22 02:47:14;;;;;;;13.73;6.85;;;10.00;99.90;;;;;;5040504;28;20037;-88
2022/06/22 02:49:45;;;;;;;6.93;4.78;;;9.70;99.90;;;;;;5051507;28;20045;-88
2022/06/22 02:52:13;;;;;;;6.82;5.70;;;9.90;99.90;;;;;;5050643;28;20167;-88
2022/06/22 02:54:47;;;;;;;9.57;6.40;;;9.90;99.90;;;;;;5034866;28;20434;-87
2022/06/22 02:57:21;;;;;;;6.90;6.20;;;10.00;99.90;;;;;;5047067;28;20061;-87
2022/06/22 02:59:49;;;;;;;5.75;5.25;;;9.90;99.90;;;;;;5051148;28;20388;-88
2022/06/22 03:02:16;;;;;;;10.93;6.18;;;;;;;;;;5051381;28;20029;-87
2022/06/22 03:04:44;;;;;;;12.95;6.03;;;9.50;99.90;;;;;;5034663;28;20048;-88
2022/06/22 03:07:10;;;;;;;6.28;5.68;;;;;;;;;;5035086;28;20064;-87
2022/06/22 03:09:37;;;;;;;6.88;6.18;;;9.80;99.90;;;;;;5052539;28;20048;-88
2022/06/22 03:12:03;;;;;;;17.40;5.55;;;;;;;;;;5034872;28;20043;-88
2022/06/22 03:14:30;;;;;;;7.07;5.80;;;;;;;;;;5051307;28;20047;-88
2022/06/22 03:17:16;;;;;;;8.70;5.15;;;9.50;99.90;;;;;;5052555;28;20101;-87
2022/06/22 03:19:46;;;;;;;10.73;5.38;;;9.40;99.90;;;;;;5035621;28;20041;-88
2022/06/22 03:22:16;;;;;;;11.68;5.72;;;;;;;;;;5034223;28;20033;-87
2022/06/22 03:24:51;;;;;;;19.63;5.93;;;9.10;99.90;;;;;;5050708;28;20111;-86
2022/06/22 03:27:21;;;;;;;17.88;6.47;;;9.20;99.90;;;;;;5054683;28;20033;-87
2022/06/22 03:29:57;;;;;;;31.95;6.68;;;9.10;99.90;;;;;;5054453;28;20070;-87
2022/06/22 03:32:40;;;;;;;20.50;6.65;;;9.10;99.90;;;;;;5054307;28;20109;-88
2022/06/22 03:35:28;;;;;;;11.50;6.15;;;9.20;99.90;;;;;;5054257;28;20036;-87
2022/06/22 03:38:09;;;;;;;6.15;5.55;;;;;;;;;;5037981;28;20044;-87
2022/06/22 03:40:47;;;;;;;6.40;5.68;;;9.00;99.90;;;;;;5055301;28;20048;-88
2022/06/22 03:43:23;;;;;;;15.55;6.88;;;9.10;99.90;;;;;;5054498;28;20045;-87
2022/06/22 03:45:56;;;;;;;21.92;7.13;;;9.30;99.90;;;;;;5046203;28;20037;-87
2022/06/22 03:48:29;;;;;;;13.00;6.05;;;9.20;99.90;;;;;;5035508;28;20480;-87
2022/06/22 03:51:14;;;;;;;18.38;7.00;;;9.10;99.90;;;;;;5054101;28;20495;-86
2022/06/22 03:54:11;;;;;;;8.35;6.50;;;9.20;99.90;;;;;;5054053;28;20564;-87
2022/06/22 03:56:41;;;;;;;7.30;6.60;;;9.00;99.90;;;;;;5005969;28;20050;-87
2022/06/22 03:59:08;;;;;;;10.90;7.28;;;;;;;;;;5054148;28;20041;-87
2022/06/22 04:01:35;;;;;;;7.78;5.85;;;9.20;99.90;;;;;;5053702;28;20052;-88
2022/06/22 04:04:01;;;;;;;15.38;7.78;;;;;;;;;;5054322;28;20037;-88
2022/06/22 04:06:33;;;;;;;9.70;7.15;;;9.30;99.90;;;;;;5055156;28;20068;-88
2022/06/22 04:09:00;;;;;;;24.77;7.22;;;9.30;99.90;;;;;;5057527;28;20392;-87
2022/06/22 04:11:47;;;;;;;32.10;7.93;;;9.20;99.90;;;;;;5056973;28;20182;-87
2022/06/22 04:14:15;;;;;;;19.73;6.78;;;9.20;99.90;;;;;;5036019;28;20487;-88
2022/06/22 04:16:47;;;;;;;6.57;5.97;;;9.30;99.90;;;;;;5038003;28;20491;-88
2022/06/22 04:19:20;;;;;;;6.95;6.25;;;9.50;99.90;;;;;;5042720;28;20047;-87
2022/06/22 04:21:51;;;;;;;6.95;6.25;;;9.50;99.90;;;;;;5014900;28;20045;-90
2022/06/22 04:24:24;;;;;;;7.63;6.03;;;9.60;99.90;;;;;;5027446;28;20040;-89
2022/06/22 04:27:18;;;;;;;7.28;6.57;;;9.50;99.90;;;;;;5029811;28;20103;-90
2022/06/22 04:30:02;;;;;;;9.25;7.28;;;9.70;99.90;;;;;;5025074;28;20037;-91
2022/06/22 04:32:37;;;;;;;7.97;7.15;;;9.80;99.90;;;;;;5008441;28;20037;-90
2022/06/22 04:35:03;;;;;;;8.00;6.90;;;;;;;;;;5014048;28;20037;-90
2022/06/22 04:37:40;;;;;;;8.80;7.65;;;10.00;99.90;;;;;;5012767;28;20045;-91
2022/06/22 04:40:25;;;;;;;10.55;8.02;;;10.20;99.90;;;;;;5013548;28;20514;-89
2022/06/22 04:42:57;;;;;;;11.88;9.02;;;10.30;99.90;;;;;;5013669;28;20045;-90
2022/06/22 04:45:32;;;;;;;8.55;7.32;;;10.30;99.90;;;;;;5017837;28;20099;-89
2022/06/22 04:48:14;;;;;;;12.85;9.98;;;10.40;99.90;;;;;;5010293;28;20041;-88
2022/06/22 04:50:43;;;;;;;15.25;10.70;;;10.90;99.90;;;;;;5014138;28;20052;-90
2022/06/22 04:53:18;;;;;;;14.63;9.88;;;10.90;99.90;;;;;;5013717;28;20044;-90
2022/06/22 04:55:44;;;;;;;14.55;9.68;;;10.90;99.90;;;;;;5017445;28;20550;-88
2022/06/22 04:58:27;;;;;;;13.88;9.82;;;11.20;99.90;;;;;;5018828;28;20044;-89
2022/06/22 05:00:53;;;;;;;18.05;10.18;;;11.60;99.90;;;;;;5024003;28;20041;-88
2022/06/22 05:03:19;;;;;;;14.18;10.75;;;;;;;;;;5030542;28;20041;-87
2022/06/22 05:05:45;;;;;;;15.75;11.82;;;12.10;99.90;;;;;;5035287;28;20049;-88
2022/06/22 05:08:27;;;;;;;15.57;10.18;;;12.60;99.90;;;;;;5027594;28;20476;-88
2022/06/22 05:11:01;;;;;;;13.52;10.68;;;13.20;99.90;;;;;;5034770;28;20483;-87
2022/06/22 05:13:27;;;;;;;11.20;9.40;;;;;;;;;;5035424;28;20090;-89
2022/06/22 05:15:56;;;;;;;16.27;10.95;;;14.10;99.90;;;;;;5018343;28;20063;-89
2022/06/22 05:18:28;;;;;;;13.07;10.43;;;14.20;99.90;;;;;;5035713;28;20076;-87
2022/06/22 05:21:03;;;;;;;17.10;10.32;;;13.90;99.90;;;;;;5036940;28;20087;-87
2022/06/22 05:23:30;;;;;;;12.70;9.15;;;13.70;99.90;;;;;;5022123;28;20040;-88
2022/06/22 05:26:00;;;;;;;12.77;10.52;;;14.50;99.90;;;;;;5055121;28;20045;-88
2022/06/22 05:28:58;;;;;;;16.02;11.43;;;16.30;99.90;;;;;;5055152;28;20548;-88
2022/06/22 05:31:29;;;;;;;15.43;10.98;;;16.60;99.90;;;;;;5020415;28;20369;-88
2022/06/22 05:34:00;;;;;;;13.88;10.57;;;15.40;99.90;;;;;;5011188;28;20044;-88
2022/06/22 05:36:30;;;;;;;14.48;10.30;;;15.90;99.90;;;;;;5016576;28;20064;-89
2022/06/22 05:38:58;;;;;;;15.65;10.20;;;16.50;99.90;;;;;;5001773;28;20038;-89
2022/06/22 05:41:31;;;;;;;15.45;10.68;;;18.20;99.90;;;;;;4999620;28;20041;-90
2022/06/22 05:44:03;;;;;;;13.05;9.85;;;16.60;99.90;;;;;;5014294;28;20030;-89
2022/06/22 05:46:29;;;;;;;12.02;9.15;;;18.50;99.90;;;;;;5002267;28;20041;-90
2022/06/22 05:48:56;;;;;;;14.32;9.35;;;17.40;99.90;;;;;;4996708;28;20445;-90
2022/06/22 05:51:41;;;;;;;12.98;9.30;;;18.20;99.90;;;;;;5001722;28;20067;-90
2022/06/22 05:54:18;;;;;;;13.93;9.73;;;18.80;99.90;;;;;;5015692;28;20488;-86
2022/06/22 05:56:50;;;;;;;12.10;8.63;;;18.40;99.90;;;;;;5034983;28;20496;-88
2022/06/22 05:59:37;;;;;;;13.18;9.27;;;16.80;99.90;;;;;;4998555;28;20422;-89
2022/06/22 06:02:39;;;;;;;11.32;9.05;;;17.30;99.90;;;;;;5034515;28;20111;-89
2022/06/22 06:05:12;;;;;;;9.65;8.68;;;19.50;99.90;;;;;;4973041;28;20052;-88
2022/06/22 06:07:46;;;;;;;10.02;8.35;;;18.90;99.90;;;;;;5029745;28;20049;-87
2022/06/22 06:10:20;;;;;;;10.67;8.73;;;19.90;99.90;;;;;;5030918;28;20470;-87
2022/06/22 06:12:56;;;;;;;13.00;9.65;;;19.40;99.90;;;;;;5005666;28;20129;-89
2022/06/22 06:15:22;;;;;;;12.43;9.60;;;20.40;99.90;;;;;;4989732;28;20766;-89
2022/06/22 06:17:51;;;;;;;11.02;8.23;;;18.20;99.90;;;;;;5022954;28;20176;-89
2022/06/22 06:20:23;;;;;;;12.13;9.15;;;20.00;99.90;;;;;;5004707;28;20049;-88
2022/06/22 06:22:52;;;;;;;14.82;10.07;;;19.50;99.90;;;;;;4988927;28;20145;-88
2022/06/22 06:28:19;;;;;;;12.80;8.77;;;18.60;99.90;;;;;;5006110;28;20059;-88
2022/06/22 06:30:49;;;;;;;13.85;8.73;;;18.40;99.90;;;;;;5006037;28;20045;-89
2022/06/22 06:33:35;;;;;;;11.18;8.35;;;19.30;99.90;;;;;;4990041;28;20053;-89
2022/06/22 06:36:00;;;;;;;9.52;7.30;;;19.90;99.90;;;;;;4989289;28;20156;-88
2022/06/22 06:38:36;;;;;;;8.68;7.05;;;21.00;99.90;;;;;;4991705;28;20079;-87
2022/06/22 06:41:16;;;;;;;9.35;6.55;;;20.90;99.90;;;;;;5007999;28;20059;-90
2022/06/22 06:43:50;;;;;;;12.80;6.38;;;19.00;99.90;;;;;;5008163;28;20049;-86
2022/06/22 06:46:19;;;;;;;13.03;6.30;;;19.40;99.90;;;;;;5026269;28;20543;-87
2022/06/22 06:48:59;;;;;;;13.45;6.75;;;18.10;99.90;;;;;;5008116;28;20388;-88
2022/06/22 06:51:28;;;;;;;11.77;5.32;;;18.00;99.90;;;;;;5008562;28;20448;-87
2022/06/22 06:54:21;;;;;;;11.77;5.13;;;18.40;99.90;;;;;;5008423;28;20680;-87
2022/06/22 06:57:01;;;;;;;9.90;5.38;;;19.80;99.90;;;;;;4979394;28;20049;-88
2022/06/22 06:59:29;;;;;;;6.90;4.57;;;18.20;99.90;;;;;;5009101;28;20048;-87
2022/06/22 07:02:05;;;;;;;7.38;3.75;;;18.30;99.90;;;;;;5008584;28;20053;-88
2022/06/22 07:04:34;;;;;;;4.53;3.47;;;18.40;99.90;;;;;;4994528;28;20056;-86
2022/06/22 07:07:19;;;;;;;7.10;2.78;;;18.60;99.90;;;;;;5010797;28;20048;-85
2022/06/22 07:09:48;;;;;;;4.90;3.00;;;18.60;99.90;;;;;;5010023;28;20053;-87
2022/06/22 07:12:47;;;;;;;9.05;2.88;;;17.80;99.90;;;;;;5029439;28;20045;-86
2022/06/22 07:15:22;;;;;;;5.10;2.58;;;18.50;99.90;;;;;;4994239;28;20045;-89
2022/06/22 07:17:51;;;;;;;4.25;1.90;;;19.70;99.90;;;;;;5011442;28;20044;-87
2022/06/22 07:20:19;;;;;;;6.10;1.60;;;18.10;99.90;;;;;;5009803;28;20123;-87
2022/06/22 07:23:00;;;;;;;7.10;2.88;;;18.20;99.90;;;;;;4994818;28;20072;-88
2022/06/22 07:25:46;;;;;;;4.55;2.90;;;18.20;99.90;;;;;;5010413;28;20067;-87
2022/06/22 07:28:21;;;;;;;4.80;2.97;;;16.40;99.90;;;;;;5009896;28;20056;-88
2022/06/22 07:30:52;;;;;;;5.22;2.83;;;19.80;99.90;;;;;;4992409;28;20080;-87
2022/06/22 07:33:52;;;;;;;5.60;3.45;;;18.10;99.90;;;;;;5010894;28;20048;-90
2022/06/22 07:36:39;;;;;;;7.43;2.15;;;18.30;99.90;;;;;;4996302;28;20056;-90
2022/06/22 07:39:42;;;;;;;6.18;2.95;;;18.30;99.90;;;;;;5007796;28;20059;-92
2022/06/22 07:42:12;;;;;;;5.57;2.75;;;18.50;99.90;;;;;;4996733;28;20045;-91
2022/06/22 07:44:39;;;;;;;5.20;2.70;;;20.70;99.90;;;;;;4995722;28;20495;-87
2022/06/22 07:47:29;;;;;;;6.57;3.35;;;17.70;99.90;;;;;;4994799;28;20778;-90
2022/06/22 07:50:13;;;;;;;8.20;3.80;;;18.60;99.90;;;;;;4995259;28;20040;-87
2022/06/22 07:52:53;;;;;;;7.43;3.88;;;17.30;99.90;;;;;;5010088;28;20415;-88
2022/06/22 07:55:31;;;;;;;8.27;3.40;;;18.10;99.90;;;;;;4990998;28;20514;-88
2022/06/22 07:58:06;;;;;;;9.13;3.25;;;18.70;99.90;;;;;;5008900;28;20043;-88
2022/06/22 08:00:33;;;;;;;;;;;18.60;99.90;;;;;;5025063;28;20077;-87
2022/06/22 08:03:26;;;;;;;6.45;3.40;;;18.60;99.90;;;;;;4992159;28;20497;-88
2022/06/22 08:05:56;;;;;;;7.22;3.45;;;18.60;99.90;;;;;;5009740;28;20102;-86
2022/06/22 08:08:31;;;;;;;8.88;3.95;;;18.40;99.90;;;;;;5009013;28;20361;-87
2022/06/22 08:11:06;;;;;;;;;;;18.40;99.90;;;;;;4992388;28;20045;-89
2022/06/22 08:13:39;;;;;;;5.85;2.90;;;18.80;99.90;;;;;;4991595;28;19935;-85
2022/06/22 08:16:08;;;;;;;7.03;3.58;;;18.30;99.90;;;;;;5008003;28;20074;-89
2022/06/22 08:18:34;;;;;;;4.68;2.90;;;18.80;99.90;;;;;;5008825;28;20040;-87
2022/06/22 08:21:00;;;;;;;8.30;3.30;;;18.20;99.90;;;;;;4992790;28;21488;-89
2022/06/22 08:23:34;;;;;;;9.07;3.00;;;18.10;99.90;;;;;;5009152;28;20075;-88
2022/06/22 08:26:06;;;;;;;6.37;2.87;;;18.50;99.90;;;;;;4992826;28;20110;-86
2022/06/22 08:28:34;;;;;;;6.97;3.05;;;18.80;99.90;;;;;;5009043;28;20408;-86
2022/06/22 08:31:00;;;;;;;6.13;2.58;;;18.60;99.90;;;;;;4991882;28;20095;-87
2022/06/22 08:33:32;;;;;;;5.35;2.50;;;18.90;99.90;;;;;;5010600;28;20656;-87
2022/06/22 08:36:14;;;;;;;5.53;2.33;;;20.90;99.90;;;;;;5006170;28;20142;-88
2022/06/22 08:38:56;;;;;;;4.60;1.98;;;19.00;99.90;;;;;;5009115;28;20126;-88
2022/06/22 08:41:22;;;;;;;7.30;2.70;;;19.00;99.90;;;;;;5009668;28;20135;-87
2022/06/22 08:43:50;;;;;;;4.95;1.10;;;20.60;99.90;;;;;;5008860;28;20045;-87
2022/06/22 08:46:25;;;;;;;3.53;1.35;;;21.30;99.90;;;;;;4990899;28;20584;-87
2022/06/22 08:49:29;;;;;;;4.75;2.25;;;19.20;99.90;;;;;;5011035;28;20083;-88
2022/06/22 08:52:20;;;;;;;4.57;1.90;;;19.50;99.90;;;;;;5008956;28;20061;-87
2022/06/22 08:55:18;;;;;;;11.52;3.03;;;19.30;99.90;;;;;;5007781;28;20049;-89
2022/06/22 08:58:13;;;;;;;9.20;2.88;;;19.40;99.90;;;;;;4991585;28;20408;-89
2022/06/22 09:01:19;;;;;;;5.93;2.55;;;19.50;99.90;;;;;;5009413;28;20132;-91
2022/06/22 09:03:54;;;;;;;7.32;2.40;;;20.40;99.90;;;;;;4994535;28;20143;-92
2022/06/22 09:06:47;;;;;;;4.32;2.05;;;19.50;99.90;;;;;;4994178;28;20052;-89
2022/06/22 09:09:54;;;;;;;6.28;2.70;;;20.80;99.90;;;;;;5010500;28;20400;-89
2022/06/22 09:12:34;;;;;;;5.10;2.00;;;19.40;99.90;;;;;;4991293;28;20508;-88
2022/06/22 09:15:31;;;;;;;5.90;1.55;;;21.30;99.90;;;;;;5008728;28;20049;-90
2022/06/22 09:18:38;;;;;;;6.28;1.65;;;20.10;99.90;;;;;;5008793;28;20132;-90
2022/06/22 09:21:22;;;;;;;4.47;1.88;;;20.00;99.90;;;;;;5006434;28;20103;-89
2022/06/22 09:23:58;;;;;;;7.25;2.60;;;19.80;99.90;;;;;;5009739;28;20563;-90
2022/06/22 09:27:14;;;;;;;8.13;2.83;;;19.90;99.90;;;;;;4993651;28;20084;-89
2022/06/22 09:29:58;;;;;;;;;;;20.10;99.90;;;;;;4932795;28;20404;-90
2022/06/22 09:32:42;;;;;;;5.63;2.10;;;20.60;99.90;;;;;;4988395;28;19925;-90
2022/06/22 09:35:30;;;;;;;7.10;2.13;;;20.20;99.90;;;;;;4992152;28;20033;-91
2022/06/22 09:38:17;;;;;;;7.30;2.00;;;20.00;99.90;;;;;;5007819;28;20287;-88
2022/06/22 09:40:50;;;;;;;5.68;1.98;;;21.10;99.90;;;;;;5005938;28;20057;-90
2022/06/22 09:43:27;;;;;;;7.65;3.55;;;22.50;99.90;;;;;;5007914;28;20609;-90
2022/06/22 09:46:36;;;;;;;4.50;1.70;;;20.20;99.90;;;;;;4990690;28;20068;-91
2022/06/22 09:49:04;;;;;;;6.50;2.40;;;20.50;99.90;;;;;;4991488;28;20581;-89
2022/06/22 09:51:51;;;;;;;6.03;1.92;;;20.60;99.90;;;;;;4990640;28;20391;-90
2022/06/22 09:57:45;;;;;;;3.97;1.90;;;20.60;99.90;;;;;;5008951;28;20230;-90
2022/06/22 10:00:18;;;;;;;8.32;2.78;;;20.70;99.90;;;;;;4997197;28;20478;-90
2022/06/22 10:03:20;;;;;;;6.87;2.87;;;19.80;99.90;;;;;;5007668;28;20121;-90
2022/06/22 10:06:13;;;;;;;5.38;2.60;;;20.80;99.90;;;;;;4910584;28;20054;-90
2022/06/22 10:09:00;;;;;;;7.95;3.30;;;21.30;99.90;;;;;;4988818;28;20049;-89
2022/06/22 10:11:44;;;;;;;6.38;2.80;;;20.70;99.90;;;;;;5004855;28;20080;-89
2022/06/22 10:14:25;;;;;;;5.28;2.00;;;22.30;99.90;;;;;;4991816;28;20460;-89
2022/06/22 10:17:09;;;;;;;3.75;1.63;;;20.90;99.90;;;;;;4990263;28;20472;-89
2022/06/22 10:19:51;;;;;;;5.15;2.38;;;22.90;99.90;;;;;;4990804;28;20037;-90
2022/06/22 10:22:40;;;;;;;7.13;1.80;;;22.50;99.90;;;;;;4989858;28;20431;-92
2022/06/22 10:25:35;;;;;;;3.47;1.30;;;21.10;99.90;;;;;;5008008;28;20045;-92
2022/06/22 10:28:07;;;;;;;;;;;21.10;99.90;;;;;;5007924;28;20051;-90
2022/06/22 10:30:59;;;;;;;7.25;2.85;;;21.20;99.90;;;;;;4991808;28;19966;-89
2022/06/22 10:34:12;;;;;;;6.20;1.85;;;21.50;99.90;;;;;;4990524;28;20143;-90
2022/06/22 10:36:57;;;;;;;5.90;1.48;;;21.20;99.90;;;;;;4989749;28;20623;-91
2022/06/22 10:39:44;;;;;;;4.22;1.50;;;22.20;99.90;;;;;;4989415;28;20132;-91
2022/06/22 10:45:09;;;;;;;9.98;2.83;;;22.40;99.90;;;;;;5004428;28;20049;-91
2022/06/22 10:48:06;;;;;;;6.13;2.28;;;21.50;99.90;;;;;;4988943;28;20390;-92
2022/06/22 10:50:57;;;;;;;7.13;2.22;;;24.00;99.90;;;;;;4989786;28;20059;-92
2022/06/22 10:53:49;;;;;;;5.68;1.98;;;21.60;99.90;;;;;;4990955;28;20689;-92
2022/06/22 10:56:30;;;;;;;5.85;2.17;;;22.90;99.90;;;;;;5006346;28;20423;-91
2022/06/22 10:59:16;;;;;;;5.90;2.03;;;21.50;99.90;;;;;;4991676;28;20056;-93
2022/06/22 11:02:20;;;;;;;4.65;1.90;;;21.40;99.90;;;;;;4990956;28;20123;-91
2022/06/22 11:05:29;;;;;;;4.13;1.95;;;22.00;99.90;;;;;;4992085;28;20052;-91
2022/06/22 11:08:32;;;;;;;6.93;2.50;;;21.60;99.90;;;;;;4988728;28;20141;-92
2022/06/22 11:11:13;;;;;;;6.72;2.72;;;21.90;99.90;;;;;;4990730;28;20423;-92
2022/06/22 11:14:09;;;;;;;8.38;2.85;;;22.50;99.90;;;;;;5007005;28;20049;-93
2022/06/22 11:16:44;;;;;;;5.80;2.15;;;21.90;99.90;;;;;;5006769;28;20940;-92
2022/06/22 11:19:35;;;;;;;8.00;2.00;;;21.90;99.90;;;;;;4991965;28;20412;-92
2022/06/22 11:22:44;;;;;;;4.88;2.50;;;22.20;99.90;;;;;;5007275;28;20045;-91
2022/06/22 11:32:11;;;;;;;4.55;2.08;;;22.00;99.90;;;;;;5005820;28;20045;-93
2022/06/22 11:35:08;;;;;;;6.95;2.60;;;22.00;99.90;;;;;;4991316;28;20099;-93
2022/06/22 11:37:52;;;;;;;5.93;1.67;;;22.30;99.90;;;;;;5007477;28;20051;-93
2022/06/22 11:40:24;;;;;;;5.20;1.90;;;22.00;99.90;;;;;;5006561;28;20069;-93
2022/06/22 11:43:11;;;;;;;4.18;2.13;;;22.30;99.90;;;;;;4993535;28;20116;-93
2022/06/22 11:45:54;;;;;;;5.90;2.75;;;22.30;99.90;;;;;;5005796;28;20041;-92
2022/06/22 11:48:56;;;;;;;7.22;2.10;;;22.70;99.90;;;;;;4993861;28;20048;-93
2022/06/22 11:51:59;;;;;;;6.40;1.70;;;22.20;99.90;;;;;;4991995;28;20142;-93
2022/06/22 11:54:53;;;;;;;5.20;1.90;;;22.40;99.90;;;;;;4992663;28;20040;-93
2022/06/22 11:57:29;;;;;;;6.13;1.83;;;22.50;99.90;;;;;;4993116;28;20079;-93
2022/06/22 12:00:19;;;;;;;7.78;2.60;;;25.00;99.90;;;;;;4992232;28;20075;-93
2022/06/22 12:03:09;;;;;;;4.97;2.30;;;22.40;99.90;;;;;;4991547;28;20045;-93
2022/06/22 12:05:54;;;;;;;4.38;1.80;;;22.70;99.90;;;;;;5008619;28;20044;-95
2022/06/22 12:08:38;;;;;;;;;;;22.50;99.90;;;;;;4992254;28;20251;-94
2022/06/22 12:11:18;;;;;;;6.97;1.83;;;23.40;99.90;;;;;;5008321;28;20404;-92
2022/06/22 12:17:04;;;;;;;5.97;1.45;;;23.00;99.90;;;;;;5008469;28;20057;-93
2022/06/22 12:19:49;;;;;;;4.32;1.50;;;23.90;99.90;;;;;;4992067;28;20076;-91
2022/06/22 12:22:30;;;;;;;4.32;1.45;;;22.60;99.90;;;;;;4990670;28;20543;-94
2022/06/22 12:25:34;;;;;;;5.03;1.20;;;24.60;99.90;;;;;;4991433;28;20500;-89
2022/06/22 12:28:23;;;;;;;4.65;1.55;;;22.80;99.90;;;;;;4920332;28;20474;-92
2022/06/22 12:31:03;;;;;;;5.07;1.40;;;24.30;99.90;;;;;;4927245;28;20506;-90
2022/06/22 12:33:38;;;;;;;5.15;1.95;;;24.40;99.90;;;;;;4984743;28;20469;-92
2022/06/22 12:36:11;;;;;;;5.85;2.10;;;23.70;99.90;;;;;;4991385;28;20056;-93
2022/06/22 12:39:10;;;;;;;7.40;2.92;;;22.80;99.90;;;;;;4991649;28;20044;-94
2022/06/22 12:42:00;;;;;;;5.72;1.80;;;22.70;99.90;;;;;;5008579;28;20091;-91
2022/06/22 12:44:46;;;;;;;4.03;1.75;;;23.00;99.90;;;;;;5007179;28;20136;-90
2022/06/22 12:47:27;;;;;;;3.65;1.60;;;23.20;99.90;;;;;;5007156;28;20060;-91
2022/06/22 12:50:34;;;;;;;6.93;1.70;;;24.10;99.90;;;;;;4992574;28;20098;-91
2022/06/22 12:53:15;;;;;;;3.45;1.58;;;23.00;99.90;;;;;;4994027;28;20127;-89
2022/06/22 12:55:49;;;;;;;9.43;2.42;;;25.30;99.90;;;;;;4992943;28;20049;-88
2022/06/22 12:58:26;;;;;;;7.15;1.95;;;24.60;99.90;;;;;;4991564;28;20048;-89
2022/06/22 13:00:54;;;;;;;5.50;1.70;;;23.20;99.90;;;;;;4992817;28;20445;-93
2022/06/22 13:03:28;;;;;;;8.18;1.80;;;24.90;99.90;;;;;;4992878;28;20404;-92
2022/06/22 13:05:57;;;;;;;5.00;2.38;;;24.30;99.90;;;;;;4991827;28;20072;-91
2022/06/22 13:08:26;;;;;;;5.72;2.10;;;23.50;99.90;;;;;;4990867;28;20138;-93
2022/06/22 13:11:02;;;;;;;6.75;2.20;;;24.60;99.90;;;;;;4992028;28;20080;-92
2022/06/22 13:13:50;;;;;;;3.22;1.48;;;23.50;99.90;;;;;;4990402;28;20067;-92
2022/06/22 13:16:30;;;;;;;6.00;2.42;;;23.20;99.90;;;;;;4983251;28;20143;-92
2022/06/22 13:19:21;;;;;;;2.38;1.58;;;23.90;99.90;;;;;;4992036;28;20044;-94
2022/06/22 13:21:55;;;;;;;4.35;1.70;;;23.30;99.90;;;;;;4992120;28;20045;-95
2022/06/22 13:24:35;;;;;;;5.82;2.10;;;23.40;99.90;;;;;;5010091;28;20048;-92
2022/06/22 13:27:19;;;;;;;5.47;2.53;;;25.10;99.90;;;;;;4994750;28;20276;-93
2022/06/22 13:29:55;;;;;;;6.18;2.58;;;23.10;99.90;;;;;;4992556;28;20591;-95
2022/06/22 13:32:24;;;;;;;6.78;2.75;;;22.90;99.90;;;;;;4991240;28;20124;-93
2022/06/22 13:34:59;;;;;;;7.18;2.70;;;25.90;99.90;;;;;;4993818;28;20098;-90
2022/06/22 13:37:28;;;;;;;;;;;25.00;99.90;;;;;;4993265;28;20135;-92
2022/06/22 13:40:14;;;;;;;6.50;2.65;;;23.60;99.90;;;;;;5013489;28;19924;-93
2022/06/22 13:43:03;;;;;;;6.05;2.38;;;23.30;99.90;;;;;;4993153;28;20529;-95
2022/06/22 13:45:54;;;;;;;4.20;1.90;;;23.60;99.90;;;;;;5008443;28;20486;-91
2022/06/22 13:48:25;;;;;;;6.45;2.45;;;23.50;99.90;;;;;;5008173;28;20037;-91
2022/06/22 13:51:09;;;;;;;7.28;2.03;;;25.00;99.90;;;;;;4991831;28;20476;-92
2022/06/22 13:54:00;;;;;;;3.83;2.13;;;23.20;99.90;;;;;;4993305;28;20099;-94
2022/06/22 13:56:34;;;;;;;5.80;2.00;;;23.40;99.90;;;;;;4989181;28;20569;-93
2022/06/22 13:59:05;;;;;;;;;;;23.60;99.90;;;;;;4991554;28;20068;-90
2022/06/22 14:01:42;;;;;;;7.53;2.72;;;24.60;99.90;;;;;;4990721;28;20626;-90
2022/06/22 14:04:20;;;;;;;7.40;2.10;;;25.50;99.90;;;;;;4991167;28;20103;-90
2022/06/22 14:06:57;;;;;;;5.95;1.95;;;25.40;99.90;;;;;;4988374;28;20053;-91
2022/06/22 14:09:28;;;;;;;4.95;2.03;;;25.20;99.90;;;;;;5004446;28;20172;-91
2022/06/22 14:12:08;;;;;;;5.72;2.05;;;24.70;99.90;;;;;;4986561;28;20052;-92
2022/06/22 14:14:56;;;;;;;6.03;2.65;;;23.70;99.90;;;;;;4989365;28;20061;-92
2022/06/22 14:17:32;;;;;;;5.13;2.13;;;23.80;99.90;;;;;;4987226;28;20049;-93